sensor_id;sensor_type;location;lat;lon;timestamp;pressure;altitude;pressure_sealevel;temperature;humidity
47154;BME280;32907;41.412;2.164;2024-03-23T00:52:44;100701.91;;;22.93;40.40
47154;BME280;32907;41.412;2.164;2024-03-23T00:55:12;100705.75;;;22.92;40.57
47154;BME280;32907;41.412;2.164;2024-03-23T00:57:39;100693.72;;;22.93;40.85
47154;BME280;32907;41.412;2.164;2024-03-23T01:00:06;100698.69;;;22.91;40.61
47154;BME280;32907;41.412;2.164;2024-03-23T01:02:36;100693.22;;;22.91;40.99
47154;BME280;32907;41.412;2.164;2024-03-23T01:05:04;100690.78;;;22.89;40.50
47154;BME280;32907;41.412;2.164;2024-03-23T01:07:31;100702.53;;;22.90;40.90
47154;BME280;32907;41.412;2.164;2024-03-23T01:09:58;100700.91;;;22.89;40.59
47154;BME280;32907;41.412;2.164;2024-03-23T01:12:25;100684.09;;;22.82;40.97
47154;BME280;32907;41.412;2.164;2024-03-23T01:14:52;100691.59;;;22.90;40.74
47154;BME280;32907;41.412;2.164;2024-03-23T01:17:19;100690.47;;;22.91;40.90
47154;BME280;32907;41.412;2.164;2024-03-23T01:19:46;100686.94;;;22.91;40.94
47154;BME280;32907;41.412;2.164;2024-03-23T01:22:13;100680.66;;;22.90;40.87
47154;BME280;32907;41.412;2.164;2024-03-23T01:24:40;100664.25;;;22.90;40.97
47154;BME280;32907;41.412;2.164;2024-03-23T01:27:08;100659.41;;;22.87;40.94
47154;BME280;32907;41.412;2.164;2024-03-23T01:29:35;100658.78;;;22.90;40.99
47154;BME280;32907;41.412;2.164;2024-03-23T01:32:02;100658.47;;;22.92;40.76
47154;BME280;32907;41.412;2.164;2024-03-23T01:34:30;100657.66;;;22.91;40.67
47154;BME280;32907;41.412;2.164;2024-03-23T01:36:56;100653.00;;;22.92;40.63
47154;BME280;32907;41.412;2.164;2024-03-23T01:39:24;100653.50;;;22.94;40.94
47154;BME280;32907;41.412;2.164;2024-03-23T01:41:50;100652.69;;;22.93;40.45
47154;BME280;32907;41.412;2.164;2024-03-23T01:44:18;100653.81;;;22.92;40.60
47154;BME280;32907;41.412;2.164;2024-03-23T01:46:45;100650.25;;;22.92;40.35
47154;BME280;32907;41.412;2.164;2024-03-23T01:49:12;100645.91;;;22.91;40.82
47154;BME280;32907;41.412;2.164;2024-03-23T01:51:39;100638.53;;;22.91;40.61
47154;BME280;32907;41.412;2.164;2024-03-23T01:54:07;100633.84;;;22.92;40.43
47154;BME280;32907;41.412;2.164;2024-03-23T01:56:34;100632.25;;;22.91;40.38
47154;BME280;32907;41.412;2.164;2024-03-23T01:59:05;100628.69;;;22.90;40.48
47154;BME280;32907;41.412;2.164;2024-03-23T02:01:34;100628.22;;;22.88;40.80
47154;BME280;32907;41.412;2.164;2024-03-23T02:04:02;100627.41;;;22.87;40.48
47154;BME280;32907;41.412;2.164;2024-03-23T02:06:30;100625.78;;;22.86;40.56
47154;BME280;32907;41.412;2.164;2024-03-23T02:08:57;100628.81;;;22.85;40.67
47154;BME280;32907;41.412;2.164;2024-03-23T02:11:24;100620.09;;;22.83;40.42
47154;BME280;32907;41.412;2.164;2024-03-23T02:13:51;100626.66;;;22.82;40.08
47154;BME280;32907;41.412;2.164;2024-03-23T02:16:18;100614.94;;;22.81;40.33
47154;BME280;32907;41.412;2.164;2024-03-23T02:18:45;100622.50;;;22.84;40.43
47154;BME280;32907;41.412;2.164;2024-03-23T02:21:12;100632.63;;;22.84;40.40
47154;BME280;32907;41.412;2.164;2024-03-23T02:23:39;100627.16;;;22.84;40.31
47154;BME280;32907;41.412;2.164;2024-03-23T02:26:06;100632.63;;;22.84;40.03
47154;BME280;32907;41.412;2.164;2024-03-23T02:28:33;100628.81;;;22.85;40.07
47154;BME280;32907;41.412;2.164;2024-03-23T02:31:00;100630.69;;;22.84;40.38
47154;BME280;32907;41.412;2.164;2024-03-23T02:33:28;100624.16;;;22.85;40.33
47154;BME280;32907;41.412;2.164;2024-03-23T02:35:58;100624.97;;;22.86;40.01
47154;BME280;32907;41.412;2.164;2024-03-23T02:38:25;100626.59;;;22.87;40.59
47154;BME280;32907;41.412;2.164;2024-03-23T02:40:52;100616.22;;;22.84;39.95
47154;BME280;32907;41.412;2.164;2024-03-23T02:43:19;100617.03;;;22.84;39.99
47154;BME280;32907;41.412;2.164;2024-03-23T02:45:46;100617.88;;;22.85;40.17
47154;BME280;32907;41.412;2.164;2024-03-23T02:48:13;100620.31;;;22.86;40.31
47154;BME280;32907;41.412;2.164;2024-03-23T02:50:40;100616.78;;;22.86;40.19
47154;BME280;32907;41.412;2.164;2024-03-23T02:53:07;100614.28;;;22.84;40.38
47154;BME280;32907;41.412;2.164;2024-03-23T02:55:35;100619.50;;;22.86;40.43
47154;BME280;32907;41.412;2.164;2024-03-23T02:58:02;100617.88;;;22.85;40.25
47154;BME280;32907;41.412;2.164;2024-03-23T03:00:29;100609.38;;;22.86;40.42
47154;BME280;32907;41.412;2.164;2024-03-23T03:02:57;100611.31;;;22.86;40.14
47154;BME280;32907;41.412;2.164;2024-03-23T03:05:24;100607.47;;;22.87;40.16
47154;BME280;32907;41.412;2.164;2024-03-23T03:07:51;100612.13;;;22.86;39.92
47154;BME280;32907;41.412;2.164;2024-03-23T03:10:18;100597.09;;;22.84;40.24
47154;BME280;32907;41.412;2.164;2024-03-23T03:12:45;100606.94;;;22.85;40.56
47154;BME280;32907;41.412;2.164;2024-03-23T03:15:13;100617.34;;;22.83;40.42
47154;BME280;32907;41.412;2.164;2024-03-23T03:17:40;100616.84;;;22.81;40.54
47154;BME280;32907;41.412;2.164;2024-03-23T03:20:08;100583.19;;;22.58;40.72
47154;BME280;32907;41.412;2.164;2024-03-23T03:22:39;100623.13;;;22.81;40.51
47154;BME280;32907;41.412;2.164;2024-03-23T03:25:06;100622.00;;;22.82;40.63
47154;BME280;32907;41.412;2.164;2024-03-23T03:27:33;100622.31;;;22.81;40.51
47154;BME280;32907;41.412;2.164;2024-03-23T03:30:01;100622.63;;;22.79;40.67
47154;BME280;32907;41.412;2.164;2024-03-23T03:32:29;100619.09;;;22.79;40.43
47154;BME280;32907;41.412;2.164;2024-03-23T03:34:57;100626.19;;;22.80;40.67
47154;BME280;32907;41.412;2.164;2024-03-23T03:37:24;100623.22;;;22.76;40.57
47154;BME280;32907;41.412;2.164;2024-03-23T03:39:51;100620.31;;;22.73;40.60
47154;BME280;32907;41.412;2.164;2024-03-23T03:42:18;100630.03;;;22.79;40.74
47154;BME280;32907;41.412;2.164;2024-03-23T03:44:45;100625.97;;;22.76;40.68
47154;BME280;32907;41.412;2.164;2024-03-23T03:47:12;100629.22;;;22.78;40.88
47154;BME280;32907;41.412;2.164;2024-03-23T03:49:39;100627.09;;;22.75;40.80
47154;BME280;32907;41.412;2.164;2024-03-23T03:52:06;100619.28;;;22.69;40.68
47154;BME280;32907;41.412;2.164;2024-03-23T03:54:33;100634.16;;;22.76;41.06
47154;BME280;32907;41.412;2.164;2024-03-23T03:57:00;100632.56;;;22.75;40.78
47154;BME280;32907;41.412;2.164;2024-03-23T03:59:27;100631.75;;;22.75;40.93
47154;BME280;32907;41.412;2.164;2024-03-23T04:01:54;100637.22;;;22.75;40.78
47154;BME280;32907;41.412;2.164;2024-03-23T04:04:21;100633.97;;;22.73;40.73
47154;BME280;32907;41.412;2.164;2024-03-23T04:06:49;100634.78;;;22.73;40.68
47154;BME280;32907;41.412;2.164;2024-03-23T04:09:16;100624.66;;;22.74;40.65
47154;BME280;32907;41.412;2.164;2024-03-23T04:11:43;100620.31;;;22.73;40.99
47154;BME280;32907;41.412;2.164;2024-03-23T04:14:11;100631.25;;;22.73;40.94
47154;BME280;32907;41.412;2.164;2024-03-23T04:16:38;100630.13;;;22.74;41.04
47154;BME280;32907;41.412;2.164;2024-03-23T04:19:05;100627.41;;;22.74;40.85
47154;BME280;32907;41.412;2.164;2024-03-23T04:21:32;100626.91;;;22.72;41.02
47154;BME280;32907;41.412;2.164;2024-03-23T04:23:59;100617.09;;;22.71;41.01
47154;BME280;32907;41.412;2.164;2024-03-23T04:26:27;100614.03;;;22.72;41.19
47154;BME280;32907;41.412;2.164;2024-03-23T04:28:53;100626.59;;;22.73;41.23
47154;BME280;32907;41.412;2.164;2024-03-23T04:31:21;100629.63;;;22.72;40.96
47154;BME280;32907;41.412;2.164;2024-03-23T04:33:48;100635.09;;;22.72;41.30
47154;BME280;32907;41.412;2.164;2024-03-23T04:36:15;100621.63;;;22.61;40.80
47154;BME280;32907;41.412;2.164;2024-03-23T04:38:42;100640.34;;;22.68;40.92
47154;BME280;32907;41.412;2.164;2024-03-23T04:41:09;100634.72;;;22.65;41.00
47154;BME280;32907;41.412;2.164;2024-03-23T04:43:36;100628.44;;;22.64;40.58
47154;BME280;32907;41.412;2.164;2024-03-23T04:46:03;100627.63;;;22.64;40.73
47154;BME280;32907;41.412;2.164;2024-03-23T04:48:30;100616.47;;;22.60;40.61
47154;BME280;32907;41.412;2.164;2024-03-23T04:50:57;100627.41;;;22.60;40.78
47154;BME280;32907;41.412;2.164;2024-03-23T04:53:24;100632.56;;;22.61;41.04
47154;BME280;32907;41.412;2.164;2024-03-23T04:55:58;100631.56;;;22.57;40.78
47154;BME280;32907;41.412;2.164;2024-03-23T04:58:25;100634.63;;;22.56;40.97
47154;BME280;32907;41.412;2.164;2024-03-23T05:00:56;100639.78;;;22.57;40.94
47154;BME280;32907;41.412;2.164;2024-03-23T05:03:24;100635.13;;;22.58;40.86
47154;BME280;32907;41.412;2.164;2024-03-23T05:05:51;100636.53;;;22.55;40.90
47154;BME280;32907;41.412;2.164;2024-03-23T05:08:18;100643.63;;;22.56;41.17
47154;BME280;32907;41.412;2.164;2024-03-23T05:10:45;100662.75;;;22.56;40.77
47154;BME280;32907;41.412;2.164;2024-03-23T05:13:12;100673.19;;;22.54;40.99
47154;BME280;32907;41.412;2.164;2024-03-23T05:15:39;100686.03;;;22.54;41.29
47154;BME280;32907;41.412;2.164;2024-03-23T05:18:06;100684.94;;;22.55;41.05
47154;BME280;32907;41.412;2.164;2024-03-23T05:20:33;100669.44;;;22.50;41.52
47154;BME280;32907;41.412;2.164;2024-03-23T05:23:00;100675.13;;;22.54;41.29
47154;BME280;32907;41.412;2.164;2024-03-23T05:25:27;100678.66;;;22.54;41.29
47154;BME280;32907;41.412;2.164;2024-03-23T05:27:54;100687.66;;;22.55;41.68
47154;BME280;32907;41.412;2.164;2024-03-23T05:30:22;100704.56;;;22.57;41.37
47154;BME280;32907;41.412;2.164;2024-03-23T05:32:49;100706.00;;;22.54;41.25
47154;BME280;32907;41.412;2.164;2024-03-23T05:35:16;100695.56;;;22.56;41.74
47154;BME280;32907;41.412;2.164;2024-03-23T05:37:43;100679.25;;;22.51;41.73
47154;BME280;32907;41.412;2.164;2024-03-23T05:40:12;100692.81;;;22.56;41.13
47154;BME280;32907;41.412;2.164;2024-03-23T05:42:41;100696.97;;;22.54;41.03
47154;BME280;32907;41.412;2.164;2024-03-23T05:45:08;100703.75;;;22.56;41.20
47154;BME280;32907;41.412;2.164;2024-03-23T05:47:35;100696.34;;;22.57;41.19
47154;BME280;32907;41.412;2.164;2024-03-23T05:50:02;100690.09;;;22.56;41.23
47154;BME280;32907;41.412;2.164;2024-03-23T05:52:29;100694.44;;;22.57;41.34
47154;BME280;32907;41.412;2.164;2024-03-23T05:54:56;100698.78;;;22.58;41.46
47154;BME280;32907;41.412;2.164;2024-03-23T05:57:25;100696.06;;;22.58;41.49
47154;BME280;32907;41.412;2.164;2024-03-23T05:59:52;100699.28;;;22.60;41.76
47154;BME280;32907;41.412;2.164;2024-03-23T06:02:19;100698.28;;;22.56;41.68
47154;BME280;32907;41.412;2.164;2024-03-23T06:04:46;100698.16;;;22.61;41.83
47154;BME280;32907;41.412;2.164;2024-03-23T06:07:14;100693.00;;;22.60;42.16
47154;BME280;32907;41.412;2.164;2024-03-23T06:09:42;100695.25;;;22.58;42.64
47154;BME280;32907;41.412;2.164;2024-03-23T06:12:09;100703.94;;;22.60;42.95
47154;BME280;32907;41.412;2.164;2024-03-23T06:14:36;100714.06;;;22.59;42.92
47154;BME280;32907;41.412;2.164;2024-03-23T06:17:03;100706.66;;;22.60;43.56
47154;BME280;32907;41.412;2.164;2024-03-23T06:19:30;100712.66;;;22.62;43.22
47154;BME280;32907;41.412;2.164;2024-03-23T06:21:57;100720.56;;;22.64;43.76
47154;BME280;32907;41.412;2.164;2024-03-23T06:24:25;100722.97;;;22.65;43.33
47154;BME280;32907;41.412;2.164;2024-03-23T06:26:52;100729.25;;;22.66;43.13
47154;BME280;32907;41.412;2.164;2024-03-23T06:29:20;100734.22;;;22.64;43.00
47154;BME280;32907;41.412;2.164;2024-03-23T06:31:53;100742.13;;;22.65;42.63
47154;BME280;32907;41.412;2.164;2024-03-23T06:34:21;100745.66;;;22.66;42.51
47154;BME280;32907;41.412;2.164;2024-03-23T06:36:50;100755.78;;;22.65;42.41
47154;BME280;32907;41.412;2.164;2024-03-23T06:39:17;100737.53;;;22.60;41.82
47154;BME280;32907;41.412;2.164;2024-03-23T06:41:52;100747.09;;;22.63;42.06
47154;BME280;32907;41.412;2.164;2024-03-23T06:44:20;100752.81;;;22.61;42.04
47154;BME280;32907;41.412;2.164;2024-03-23T06:46:47;100776.34;;;22.63;41.85
47154;BME280;32907;41.412;2.164;2024-03-23T06:49:16;100779.34;;;22.61;42.23
47154;BME280;32907;41.412;2.164;2024-03-23T06:51:43;100788.34;;;22.61;42.34
47154;BME280;32907;41.412;2.164;2024-03-23T06:54:11;100787.56;;;22.61;42.02
47154;BME280;32907;41.412;2.164;2024-03-23T06:56:38;100793.81;;;22.61;42.34
47154;BME280;32907;41.412;2.164;2024-03-23T06:59:06;100796.06;;;22.59;42.62
47154;BME280;32907;41.412;2.164;2024-03-23T07:01:34;100800.41;;;22.60;42.52
47154;BME280;32907;41.412;2.164;2024-03-23T07:04:02;100816.31;;;22.58;42.69
47154;BME280;32907;41.412;2.164;2024-03-23T07:06:31;100814.69;;;22.57;42.77
47154;BME280;32907;41.412;2.164;2024-03-23T07:08:58;100810.03;;;22.58;42.44
47154;BME280;32907;41.412;2.164;2024-03-23T07:11:25;100805.38;;;22.58;42.46
47154;BME280;32907;41.412;2.164;2024-03-23T07:13:53;100810.34;;;22.56;42.61
47154;BME280;32907;41.412;2.164;2024-03-23T07:16:21;100814.69;;;22.57;42.57
47154;BME280;32907;41.412;2.164;2024-03-23T07:18:50;100821.28;;;22.56;42.49
47154;BME280;32907;41.412;2.164;2024-03-23T07:21:17;100811.47;;;22.55;42.54
47154;BME280;32907;41.412;2.164;2024-03-23T07:23:44;100802.72;;;22.53;42.64
47154;BME280;32907;41.412;2.164;2024-03-23T07:26:12;100797.25;;;22.53;42.72
47154;BME280;32907;41.412;2.164;2024-03-23T07:28:40;100818.53;;;22.56;43.18
47154;BME280;32907;41.412;2.164;2024-03-23T07:31:11;100827.25;;;22.58;43.28
47154;BME280;32907;41.412;2.164;2024-03-23T07:33:47;100824.19;;;22.60;43.59
47154;BME280;32907;41.412;2.164;2024-03-23T07:36:15;100819.53;;;22.60;43.61
47154;BME280;32907;41.412;2.164;2024-03-23T07:38:45;100837.06;;;22.59;43.93
47154;BME280;32907;41.412;2.164;2024-03-23T07:41:17;100836.25;;;22.59;44.06
47154;BME280;32907;41.412;2.164;2024-03-23T07:43:46;100837.88;;;22.60;43.91
47154;BME280;32907;41.412;2.164;2024-03-23T07:46:14;100845.88;;;22.56;43.92
47154;BME280;32907;41.412;2.164;2024-03-23T07:48:42;100855.88;;;22.61;43.65
47154;BME280;32907;41.412;2.164;2024-03-23T07:51:11;100848.09;;;22.54;44.06
47154;BME280;32907;41.412;2.164;2024-03-23T07:53:38;100858.63;;;22.61;43.90
47154;BME280;32907;41.412;2.164;2024-03-23T07:56:09;100861.66;;;22.59;44.08
47154;BME280;32907;41.412;2.164;2024-03-23T07:58:39;100864.88;;;22.61;44.40
47154;BME280;32907;41.412;2.164;2024-03-23T08:01:11;100857.22;;;22.64;44.24
47154;BME280;32907;41.412;2.164;2024-03-23T08:03:49;100858.84;;;22.65;44.35
47154;BME280;32907;41.412;2.164;2024-03-23T08:06:18;100850.34;;;22.66;44.48
47154;BME280;32907;41.412;2.164;2024-03-23T08:08:54;100855.50;;;22.68;44.56
47154;BME280;32907;41.412;2.164;2024-03-23T08:11:30;100854.91;;;22.71;44.98
47154;BME280;32907;41.412;2.164;2024-03-23T08:13:57;100854.28;;;22.74;45.45
47154;BME280;32907;41.412;2.164;2024-03-23T08:16:25;100858.34;;;22.76;45.65
47154;BME280;32907;41.412;2.164;2024-03-23T08:18:52;100856.13;;;22.78;45.58
47154;BME280;32907;41.412;2.164;2024-03-23T08:21:19;100861.00;;;22.81;45.21
47154;BME280;32907;41.412;2.164;2024-03-23T08:23:46;100865.84;;;22.84;45.24
47154;BME280;32907;41.412;2.164;2024-03-23T08:26:15;100863.41;;;22.83;44.89
47154;BME280;32907;41.412;2.164;2024-03-23T08:28:44;100872.44;;;22.83;44.90
47154;BME280;32907;41.412;2.164;2024-03-23T08:31:12;100878.81;;;22.79;45.22
47154;BME280;32907;41.412;2.164;2024-03-23T08:33:40;100880.94;;;22.82;45.24
47154;BME280;32907;41.412;2.164;2024-03-23T08:36:10;100890.44;;;22.84;45.33
47154;BME280;32907;41.412;2.164;2024-03-23T08:38:41;100880.53;;;22.75;45.21
47154;BME280;32907;41.412;2.164;2024-03-23T08:41:09;100903.88;;;22.86;45.31
47154;BME280;32907;41.412;2.164;2024-03-23T08:43:38;100903.56;;;22.87;45.74
47154;BME280;32907;41.412;2.164;2024-03-23T08:46:15;100900.03;;;22.87;46.00
47154;BME280;32907;41.412;2.164;2024-03-23T08:48:44;100911.16;;;22.91;46.43
47154;BME280;32907;41.412;2.164;2024-03-23T08:51:16;100908.94;;;22.93;46.81
47154;BME280;32907;41.412;2.164;2024-03-23T08:53:43;100916.84;;;22.94;46.54
47154;BME280;32907;41.412;2.164;2024-03-23T08:56:11;100914.63;;;22.96;46.37
47154;BME280;32907;41.412;2.164;2024-03-23T08:58:38;100905.91;;;22.94;46.54
47154;BME280;32907;41.412;2.164;2024-03-23T09:01:10;100912.69;;;22.97;46.42
47154;BME280;32907;41.412;2.164;2024-03-23T09:03:37;100913.00;;;22.95;46.21
47154;BME280;32907;41.412;2.164;2024-03-23T09:06:08;100916.25;;;22.97;46.35
47154;BME280;32907;41.412;2.164;2024-03-23T09:08:35;100923.34;;;22.98;46.23
47154;BME280;32907;41.412;2.164;2024-03-23T09:11:04;100920.09;;;22.96;46.25
47154;BME280;32907;41.412;2.164;2024-03-23T09:13:35;100925.25;;;22.98;46.40
47154;BME280;32907;41.412;2.164;2024-03-23T09:16:03;100903.94;;;22.81;46.56
47154;BME280;32907;41.412;2.164;2024-03-23T09:18:34;100924.13;;;22.99;46.69
47154;BME280;32907;41.412;2.164;2024-03-23T09:21:03;100927.69;;;22.99;46.50
47154;BME280;32907;41.412;2.164;2024-03-23T09:23:30;100930.22;;;22.96;46.40
47154;BME280;32907;41.412;2.164;2024-03-23T09:26:03;100938.31;;;23.01;46.88
47154;BME280;32907;41.412;2.164;2024-03-23T09:28:30;100947.06;;;23.03;46.73
47154;BME280;32907;41.412;2.164;2024-03-23T09:31:04;100946.75;;;23.04;46.81
47154;BME280;32907;41.412;2.164;2024-03-23T09:33:31;100947.25;;;23.06;47.00
47154;BME280;32907;41.412;2.164;2024-03-23T09:36:03;100933.88;;;23.05;46.93
47154;BME280;32907;41.412;2.164;2024-03-23T09:38:30;100928.31;;;22.96;46.88
47154;BME280;32907;41.412;2.164;2024-03-23T09:40:58;100939.44;;;23.00;46.79
47154;BME280;32907;41.412;2.164;2024-03-23T09:43:26;100936.00;;;23.08;46.91
47154;BME280;32907;41.412;2.164;2024-03-23T09:45:53;100929.22;;;23.05;46.33
47154;BME280;32907;41.412;2.164;2024-03-23T09:48:20;100932.75;;;23.06;46.78
47154;BME280;32907;41.412;2.164;2024-03-23T09:50:48;100946.94;;;23.08;46.45
47154;BME280;32907;41.412;2.164;2024-03-23T09:53:15;100955.16;;;23.08;46.49
47154;BME280;32907;41.412;2.164;2024-03-23T09:55:44;100959.81;;;23.07;46.57
47154;BME280;32907;41.412;2.164;2024-03-23T09:58:17;100951.91;;;23.06;46.54
47154;BME280;32907;41.412;2.164;2024-03-23T10:00:44;100932.66;;;22.97;46.74
47154;BME280;32907;41.412;2.164;2024-03-23T10:03:12;100950.00;;;23.06;46.65
47154;BME280;32907;41.412;2.164;2024-03-23T10:05:39;100956.78;;;23.09;46.72
47154;BME280;32907;41.412;2.164;2024-03-23T10:10:44;100946.63;;;23.09;46.54
47154;BME280;32907;41.412;2.164;2024-03-23T10:13:12;100948.28;;;23.10;46.59
47154;BME280;32907;41.412;2.164;2024-03-23T10:15:57;100948.28;;;23.10;45.99
47154;BME280;32907;41.412;2.164;2024-03-23T10:18:25;100932.84;;;23.01;46.41
47154;BME280;32907;41.412;2.164;2024-03-23T10:21:08;100944.44;;;23.11;46.55
47154;BME280;32907;41.412;2.164;2024-03-23T10:23:37;100950.72;;;23.12;46.55
47154;BME280;32907;41.412;2.164;2024-03-23T10:26:15;100946.06;;;23.12;45.92
47154;BME280;32907;41.412;2.164;2024-03-23T10:31:18;100933.50;;;23.11;45.64
47154;BME280;32907;41.412;2.164;2024-03-23T10:33:46;100927.72;;;23.13;45.22
47154;BME280;32907;41.412;2.164;2024-03-23T10:36:14;100924.66;;;23.14;45.00
47154;BME280;32907;41.412;2.164;2024-03-23T10:38:44;100925.47;;;23.15;45.17
47154;BME280;32907;41.412;2.164;2024-03-23T10:41:11;100921.13;;;23.14;45.04
47154;BME280;32907;41.412;2.164;2024-03-23T10:43:39;100915.34;;;23.15;44.89
47154;BME280;32907;41.412;2.164;2024-03-23T10:46:06;100915.84;;;23.17;45.15
47154;BME280;32907;41.412;2.164;2024-03-23T10:48:33;100891.94;;;23.09;45.12
47154;BME280;32907;41.412;2.164;2024-03-23T10:51:00;100884.03;;;23.08;44.60
47154;BME280;32907;41.412;2.164;2024-03-23T10:53:28;100903.81;;;23.19;44.75
47154;BME280;32907;41.412;2.164;2024-03-23T10:55:56;100890.72;;;23.15;44.66
47154;BME280;32907;41.412;2.164;2024-03-23T10:58:39;100889.09;;;23.14;44.45
47154;BME280;32907;41.412;2.164;2024-03-23T11:01:06;100889.09;;;23.14;44.35
47154;BME280;32907;41.412;2.164;2024-03-23T11:03:38;100889.91;;;23.15;44.44
47154;BME280;32907;41.412;2.164;2024-03-23T11:06:06;100888.59;;;23.12;44.40
47154;BME280;32907;41.412;2.164;2024-03-23T11:08:35;100878.78;;;23.11;44.60
47154;BME280;32907;41.412;2.164;2024-03-23T11:11:13;100883.94;;;23.13;44.31
47154;BME280;32907;41.412;2.164;2024-03-23T11:13:40;100876.25;;;23.15;44.39
47154;BME280;32907;41.412;2.164;2024-03-23T11:16:33;100880.09;;;23.14;44.31
47154;BME280;32907;41.412;2.164;2024-03-23T11:22:01;100885.25;;;23.15;44.04
47154;BME280;32907;41.412;2.164;2024-03-23T11:24:28;100886.69;;;23.13;43.29
47154;BME280;32907;41.412;2.164;2024-03-23T11:26:55;100891.34;;;23.12;43.47
47154;BME280;32907;41.412;2.164;2024-03-23T11:29:22;100890.53;;;23.12;43.25
47154;BME280;32907;41.412;2.164;2024-03-23T11:31:51;100890.53;;;23.12;42.86
47154;BME280;32907;41.412;2.164;2024-03-23T11:34:22;100889.19;;;23.09;43.22
47154;BME280;32907;41.412;2.164;2024-03-23T11:36:49;100891.66;;;23.11;43.03
47154;BME280;32907;41.412;2.164;2024-03-23T11:39:20;100890.00;;;23.10;42.98
47154;BME280;32907;41.412;2.164;2024-03-23T11:41:48;100900.03;;;23.14;43.14
47154;BME280;32907;41.412;2.164;2024-03-23T11:44:22;100894.25;;;23.16;44.02
47154;BME280;32907;41.412;2.164;2024-03-23T11:46:50;100895.59;;;23.19;44.58
47154;BME280;32907;41.412;2.164;2024-03-23T11:49:24;100900.78;;;23.20;43.80
47154;BME280;32907;41.412;2.164;2024-03-23T11:51:53;100902.88;;;23.23;42.40
47154;BME280;32907;41.412;2.164;2024-03-23T11:54:22;100902.06;;;23.23;42.44
47154;BME280;32907;41.412;2.164;2024-03-23T11:57:00;100909.47;;;23.22;42.09
47154;BME280;32907;41.412;2.164;2024-03-23T11:59:38;100905.22;;;23.16;41.63
47154;BME280;32907;41.412;2.164;2024-03-23T12:02:07;100911.59;;;23.25;41.09
47154;BME280;32907;41.412;2.164;2024-03-23T12:04:35;100917.88;;;23.26;41.21
47154;BME280;32907;41.412;2.164;2024-03-23T12:07:12;100904.19;;;23.26;40.93
47154;BME280;32907;41.412;2.164;2024-03-23T12:09:40;100911.59;;;23.25;41.03
47154;BME280;32907;41.412;2.164;2024-03-23T12:12:18;100875.94;;;23.16;41.29
47154;BME280;32907;41.412;2.164;2024-03-23T12:15:01;100892.97;;;23.27;41.71
47154;BME280;32907;41.412;2.164;2024-03-23T12:17:29;100882.50;;;23.15;41.91
47154;BME280;32907;41.412;2.164;2024-03-23T12:19:56;100871.25;;;23.17;42.37
47154;BME280;32907;41.412;2.164;2024-03-23T12:22:24;100886.69;;;23.27;42.30
47154;BME280;32907;41.412;2.164;2024-03-23T12:24:51;100882.03;;;23.27;42.37
47154;BME280;32907;41.412;2.164;2024-03-23T12:27:19;100878.16;;;23.28;42.46
47154;BME280;32907;41.412;2.164;2024-03-23T12:29:46;100880.59;;;23.30;42.51
47154;BME280;32907;41.412;2.164;2024-03-23T12:32:14;100878.34;;;23.32;42.76
47154;BME280;32907;41.412;2.164;2024-03-23T12:34:41;100863.38;;;23.29;42.77
47154;BME280;32907;41.412;2.164;2024-03-23T12:37:08;100871.25;;;23.31;42.44
47154;BME280;32907;41.412;2.164;2024-03-23T12:39:39;100867.72;;;23.30;42.15
47154;BME280;32907;41.412;2.164;2024-03-23T12:42:06;100860.13;;;23.27;42.03
47154;BME280;32907;41.412;2.164;2024-03-23T12:44:33;100860.94;;;23.28;41.87
47154;BME280;32907;41.412;2.164;2024-03-23T12:47:00;100858.72;;;23.30;41.18
47154;BME280;32907;41.412;2.164;2024-03-23T12:49:28;100865.78;;;23.31;41.48
47154;BME280;32907;41.412;2.164;2024-03-23T12:51:56;100857.59;;;23.31;41.79
47154;BME280;32907;41.412;2.164;2024-03-23T12:54:24;100849.88;;;23.33;40.76
47154;BME280;32907;41.412;2.164;2024-03-23T12:56:51;100840.06;;;23.32;40.13
47154;BME280;32907;41.412;2.164;2024-03-23T12:59:19;100838.13;;;23.32;39.75
47154;BME280;32907;41.412;2.164;2024-03-23T13:01:46;100839.88;;;23.28;39.01
47154;BME280;32907;41.412;2.164;2024-03-23T13:04:13;100837.44;;;23.27;39.15
47154;BME280;32907;41.412;2.164;2024-03-23T13:06:41;100832.78;;;23.27;39.01
47154;BME280;32907;41.412;2.164;2024-03-23T13:09:08;100844.53;;;23.28;38.89
47154;BME280;32907;41.412;2.164;2024-03-23T13:11:35;100831.16;;;23.26;38.98
47154;BME280;32907;41.412;2.164;2024-03-23T13:14:03;100841.78;;;23.28;39.21
47154;BME280;32907;41.412;2.164;2024-03-23T13:16:30;100826.69;;;23.30;39.06
47154;BME280;32907;41.412;2.164;2024-03-23T13:18:58;100834.56;;;23.32;39.47
47154;BME280;32907;41.412;2.164;2024-03-23T13:21:27;100814.53;;;23.23;39.36
47154;BME280;32907;41.412;2.164;2024-03-23T13:23:54;100829.09;;;23.32;39.60
47154;BME280;32907;41.412;2.164;2024-03-23T13:26:22;100826.06;;;23.33;39.97
47154;BME280;32907;41.412;2.164;2024-03-23T13:28:50;100821.69;;;23.32;39.88
47154;BME280;32907;41.412;2.164;2024-03-23T13:31:16;100813.50;;;23.32;39.62
47154;BME280;32907;41.412;2.164;2024-03-23T13:33:44;100818.66;;;23.34;39.50
47154;BME280;32907;41.412;2.164;2024-03-23T13:36:11;100813.00;;;23.30;39.84
47154;BME280;32907;41.412;2.164;2024-03-23T13:38:38;100810.56;;;23.29;39.39
47154;BME280;32907;41.412;2.164;2024-03-23T13:41:05;100806.41;;;23.31;39.24
47154;BME280;32907;41.412;2.164;2024-03-23T13:43:34;100822.50;;;23.33;39.43
47154;BME280;32907;41.412;2.164;2024-03-23T13:46:01;100802.84;;;23.31;39.53
47154;BME280;32907;41.412;2.164;2024-03-23T13:48:28;100799.31;;;23.30;39.68
47154;BME280;32907;41.412;2.164;2024-03-23T13:51:03;100802.06;;;23.30;39.79
47154;BME280;32907;41.412;2.164;2024-03-23T13:53:30;100796.28;;;23.32;40.20
47154;BME280;32907;41.412;2.164;2024-03-23T13:55:59;100793.22;;;23.33;40.34